sensor_id;sensor_type;location;lat;lon;timestamp;P1;durP1;ratioP1;P2;durP2;ratioP2
41323;SDS011;27073;51.128;4.220;2023-04-06T00:02:11;22.65;;;15.82;;
41323;SDS011;27073;51.128;4.220;2023-04-06T00:04:37;25.13;;;15.75;;
41323;SDS011;27073;51.128;4.220;2023-04-06T00:07:03;21.33;;;15.73;;
41323;SDS011;27073;51.128;4.220;2023-04-06T00:09:29;24.27;;;15.93;;
41323;SDS011;27073;51.128;4.220;2023-04-06T00:11:55;23.40;;;16.63;;
41323;SDS011;27073;51.128;4.220;2023-04-06T00:14:21;24.55;;;14.95;;
41323;SDS011;27073;51.128;4.220;2023-04-06T00:16:47;26.02;;;16.33;;
41323;SDS011;27073;51.128;4.220;2023-04-06T00:19:13;22.42;;;15.05;;
41323;SDS011;27073;51.128;4.220;2023-04-06T00:21:38;19.85;;;15.82;;
41323;SDS011;27073;51.128;4.220;2023-04-06T00:24:04;20.73;;;14.65;;
41323;SDS011;27073;51.128;4.220;2023-04-06T00:26:30;20.42;;;13.80;;
41323;SDS011;27073;51.128;4.220;2023-04-06T00:28:56;23.48;;;15.75;;
41323;SDS011;27073;51.128;4.220;2023-04-06T00:31:23;21.60;;;15.48;;
41323;SDS011;27073;51.128;4.220;2023-04-06T00:33:49;21.90;;;15.10;;
41323;SDS011;27073;51.128;4.220;2023-04-06T00:36:15;21.63;;;14.48;;
41323;SDS011;27073;51.128;4.220;2023-04-06T00:38:41;21.52;;;14.95;;
41323;SDS011;27073;51.128;4.220;2023-04-06T00:41:07;19.98;;;14.25;;
41323;SDS011;27073;51.128;4.220;2023-04-06T00:43:32;20.45;;;14.23;;
41323;SDS011;27073;51.128;4.220;2023-04-06T00:45:58;20.33;;;13.95;;
41323;SDS011;27073;51.128;4.220;2023-04-06T00:48:24;19.88;;;13.23;;
41323;SDS011;27073;51.128;4.220;2023-04-06T00:50:50;20.23;;;13.02;;
41323;SDS011;27073;51.128;4.220;2023-04-06T00:53:16;18.48;;;13.70;;
41323;SDS011;27073;51.128;4.220;2023-04-06T00:55:43;17.77;;;13.40;;
41323;SDS011;27073;51.128;4.220;2023-04-06T00:58:09;20.25;;;14.00;;
41323;SDS011;27073;51.128;4.220;2023-04-06T01:00:44;20.73;;;12.75;;
41323;SDS011;27073;51.128;4.220;2023-04-06T01:05:42;20.42;;;12.45;;
41323;SDS011;27073;51.128;4.220;2023-04-06T01:08:17;15.93;;;11.98;;
41323;SDS011;27073;51.128;4.220;2023-04-06T01:10:43;21.63;;;13.98;;
41323;SDS011;27073;51.128;4.220;2023-04-06T01:13:30;20.40;;;13.68;;
41323;SDS011;27073;51.128;4.220;2023-04-06T01:15:59;16.60;;;11.93;;
41323;SDS011;27073;51.128;4.220;2023-04-06T01:18:45;20.63;;;13.45;;
41323;SDS011;27073;51.128;4.220;2023-04-06T01:21:16;17.88;;;13.45;;
41323;SDS011;27073;51.128;4.220;2023-04-06T01:23:56;20.90;;;13.48;;
41323;SDS011;27073;51.128;4.220;2023-04-06T01:26:29;18.48;;;13.23;;
41323;SDS011;27073;51.128;4.220;2023-04-06T01:28:57;20.33;;;13.95;;
41323;SDS011;27073;51.128;4.220;2023-04-06T01:31:26;23.30;;;13.55;;
41323;SDS011;27073;51.128;4.220;2023-04-06T01:33:52;18.65;;;13.13;;
41323;SDS011;27073;51.128;4.220;2023-04-06T01:36:21;17.33;;;13.10;;
41323;SDS011;27073;51.128;4.220;2023-04-06T01:38:55;17.90;;;13.38;;
41323;SDS011;27073;51.128;4.220;2023-04-06T01:41:31;18.25;;;13.43;;
41323;SDS011;27073;51.128;4.220;2023-04-06T01:43:57;18.77;;;13.48;;
41323;SDS011;27073;51.128;4.220;2023-04-06T01:46:26;18.30;;;13.00;;
41323;SDS011;27073;51.128;4.220;2023-04-06T01:48:53;18.13;;;13.25;;
41323;SDS011;27073;51.128;4.220;2023-04-06T01:51:32;19.17;;;13.23;;
41323;SDS011;27073;51.128;4.220;2023-04-06T01:54:01;24.58;;;12.90;;
41323;SDS011;27073;51.128;4.220;2023-04-06T01:56:38;18.00;;;13.13;;
41323;SDS011;27073;51.128;4.220;2023-04-06T01:59:24;18.35;;;13.90;;
41323;SDS011;27073;51.128;4.220;2023-04-06T02:01:50;18.83;;;13.63;;
41323;SDS011;27073;51.128;4.220;2023-04-06T02:04:17;17.08;;;12.65;;
41323;SDS011;27073;51.128;4.220;2023-04-06T02:06:45;17.27;;;13.25;;
41323;SDS011;27073;51.128;4.220;2023-04-06T02:09:13;24.25;;;13.20;;
41323;SDS011;27073;51.128;4.220;2023-04-06T02:11:40;17.42;;;13.40;;
41323;SDS011;27073;51.128;4.220;2023-04-06T02:14:05;19.55;;;13.73;;
41323;SDS011;27073;51.128;4.220;2023-04-06T02:16:37;17.67;;;13.15;;
41323;SDS011;27073;51.128;4.220;2023-04-06T02:19:03;20.52;;;13.52;;
41323;SDS011;27073;51.128;4.220;2023-04-06T02:21:29;20.15;;;13.48;;
41323;SDS011;27073;51.128;4.220;2023-04-06T02:23:54;17.77;;;12.18;;
41323;SDS011;27073;51.128;4.220;2023-04-06T02:26:20;21.23;;;13.60;;
41323;SDS011;27073;51.128;4.220;2023-04-06T02:28:46;18.02;;;12.43;;
41323;SDS011;27073;51.128;4.220;2023-04-06T02:31:12;21.88;;;14.07;;
41323;SDS011;27073;51.128;4.220;2023-04-06T02:33:41;21.58;;;13.40;;
41323;SDS011;27073;51.128;4.220;2023-04-06T02:36:09;18.75;;;12.73;;
41323;SDS011;27073;51.128;4.220;2023-04-06T02:38:35;18.90;;;13.90;;
41323;SDS011;27073;51.128;4.220;2023-04-06T02:41:01;23.45;;;13.32;;
41323;SDS011;27073;51.128;4.220;2023-04-06T02:43:28;19.48;;;13.07;;
41323;SDS011;27073;51.128;4.220;2023-04-06T02:46:03;21.25;;;12.98;;
41323;SDS011;27073;51.128;4.220;2023-04-06T02:48:32;18.33;;;13.50;;
41323;SDS011;27073;51.128;4.220;2023-04-06T02:51:02;20.25;;;13.60;;
41323;SDS011;27073;51.128;4.220;2023-04-06T02:53:28;20.65;;;13.60;;
41323;SDS011;27073;51.128;4.220;2023-04-06T02:55:54;16.55;;;13.32;;
41323;SDS011;27073;51.128;4.220;2023-04-06T02:58:29;18.35;;;13.27;;
41323;SDS011;27073;51.128;4.220;2023-04-06T03:00:56;18.15;;;13.63;;
41323;SDS011;27073;51.128;4.220;2023-04-06T03:03:22;20.92;;;12.85;;
41323;SDS011;27073;51.128;4.220;2023-04-06T03:05:48;18.88;;;13.30;;
41323;SDS011;27073;51.128;4.220;2023-04-06T03:08:18;24.45;;;14.50;;
41323;SDS011;27073;51.128;4.220;2023-04-06T03:10:44;19.27;;;13.52;;
41323;SDS011;27073;51.128;4.220;2023-04-06T03:13:11;18.33;;;13.65;;
41323;SDS011;27073;51.128;4.220;2023-04-06T03:15:49;24.35;;;14.35;;
41323;SDS011;27073;51.128;4.220;2023-04-06T03:18:20;20.33;;;14.15;;
41323;SDS011;27073;51.128;4.220;2023-04-06T03:20:49;23.98;;;14.20;;
41323;SDS011;27073;51.128;4.220;2023-04-06T03:23:16;17.98;;;13.35;;
41323;SDS011;27073;51.128;4.220;2023-04-06T03:25:44;23.10;;;14.43;;
41323;SDS011;27073;51.128;4.220;2023-04-06T03:28:14;22.85;;;14.32;;
41323;SDS011;27073;51.128;4.220;2023-04-06T03:30:55;17.63;;;14.27;;
41323;SDS011;27073;51.128;4.220;2023-04-06T03:33:36;22.13;;;14.80;;
41323;SDS011;27073;51.128;4.220;2023-04-06T03:36:02;20.48;;;14.25;;
41323;SDS011;27073;51.128;4.220;2023-04-06T03:38:32;19.73;;;14.23;;
41323;SDS011;27073;51.128;4.220;2023-04-06T03:40:59;22.63;;;14.73;;
41323;SDS011;27073;51.128;4.220;2023-04-06T03:43:26;21.73;;;14.40;;
41323;SDS011;27073;51.128;4.220;2023-04-06T03:45:52;21.80;;;15.00;;
41323;SDS011;27073;51.128;4.220;2023-04-06T03:48:18;18.02;;;13.95;;
41323;SDS011;27073;51.128;4.220;2023-04-06T03:50:44;17.88;;;13.40;;
41323;SDS011;27073;51.128;4.220;2023-04-06T03:53:10;19.48;;;13.75;;
41323;SDS011;27073;51.128;4.220;2023-04-06T03:55:37;23.88;;;15.07;;
41323;SDS011;27073;51.128;4.220;2023-04-06T03:58:03;19.50;;;14.10;;
41323;SDS011;27073;51.128;4.220;2023-04-06T04:00:28;24.25;;;16.60;;
41323;SDS011;27073;51.128;4.220;2023-04-06T04:02:54;19.20;;;14.10;;
41323;SDS011;27073;51.128;4.220;2023-04-06T04:05:20;20.08;;;15.45;;
41323;SDS011;27073;51.128;4.220;2023-04-06T04:07:51;21.27;;;15.13;;
41323;SDS011;27073;51.128;4.220;2023-04-06T04:10:18;23.83;;;15.65;;
41323;SDS011;27073;51.128;4.220;2023-04-06T04:12:45;21.50;;;15.90;;
41323;SDS011;27073;51.128;4.220;2023-04-06T04:15:11;20.77;;;15.63;;
41323;SDS011;27073;51.128;4.220;2023-04-06T04:17:37;23.48;;;15.55;;
41323;SDS011;27073;51.128;4.220;2023-04-06T04:20:04;20.13;;;14.90;;
41323;SDS011;27073;51.128;4.220;2023-04-06T04:22:30;22.05;;;16.27;;
41323;SDS011;27073;51.128;4.220;2023-04-06T04:24:57;23.75;;;16.08;;
41323;SDS011;27073;51.128;4.220;2023-04-06T04:27:23;19.95;;;15.55;;
41323;SDS011;27073;51.128;4.220;2023-04-06T04:29:50;23.98;;;16.88;;
41323;SDS011;27073;51.128;4.220;2023-04-06T04:32:16;20.27;;;15.05;;
41323;SDS011;27073;51.128;4.220;2023-04-06T04:34:44;22.10;;;16.77;;
41323;SDS011;27073;51.128;4.220;2023-04-06T04:37:18;23.15;;;16.58;;
41323;SDS011;27073;51.128;4.220;2023-04-06T04:39:52;23.88;;;16.85;;
41323;SDS011;27073;51.128;4.220;2023-04-06T04:42:17;24.38;;;17.35;;
41323;SDS011;27073;51.128;4.220;2023-04-06T04:44:49;24.35;;;17.77;;
41323;SDS011;27073;51.128;4.220;2023-04-06T04:47:23;21.48;;;17.42;;
41323;SDS011;27073;51.128;4.220;2023-04-06T04:49:49;22.65;;;16.73;;
41323;SDS011;27073;51.128;4.220;2023-04-06T04:52:19;22.83;;;17.30;;
41323;SDS011;27073;51.128;4.220;2023-04-06T04:55:15;21.73;;;16.98;;
41323;SDS011;27073;51.128;4.220;2023-04-06T04:57:44;22.90;;;18.03;;
41323;SDS011;27073;51.128;4.220;2023-04-06T05:00:10;21.38;;;16.77;;
41323;SDS011;27073;51.128;4.220;2023-04-06T05:02:40;25.13;;;17.90;;
41323;SDS011;27073;51.128;4.220;2023-04-06T05:05:27;22.55;;;17.73;;
41323;SDS011;27073;51.128;4.220;2023-04-06T05:07:53;25.25;;;18.83;;
41323;SDS011;27073;51.128;4.220;2023-04-06T05:10:28;22.80;;;17.75;;
41323;SDS011;27073;51.128;4.220;2023-04-06T05:12:59;27.30;;;18.15;;
41323;SDS011;27073;51.128;4.220;2023-04-06T05:15:26;27.10;;;18.35;;
41323;SDS011;27073;51.128;4.220;2023-04-06T05:17:56;27.33;;;17.55;;
41323;SDS011;27073;51.128;4.220;2023-04-06T05:20:29;26.15;;;19.10;;
41323;SDS011;27073;51.128;4.220;2023-04-06T05:22:55;23.73;;;18.27;;
41323;SDS011;27073;51.128;4.220;2023-04-06T05:25:21;22.83;;;17.73;;
41323;SDS011;27073;51.128;4.220;2023-04-06T05:27:51;26.50;;;19.88;;
41323;SDS011;27073;51.128;4.220;2023-04-06T05:30:35;27.25;;;19.35;;
41323;SDS011;27073;51.128;4.220;2023-04-06T05:33:02;23.42;;;18.83;;
41323;SDS011;27073;51.128;4.220;2023-04-06T05:35:37;27.50;;;20.42;;
41323;SDS011;27073;51.128;4.220;2023-04-06T05:38:09;25.58;;;19.25;;
41323;SDS011;27073;51.128;4.220;2023-04-06T05:40:36;26.25;;;19.48;;
41323;SDS011;27073;51.128;4.220;2023-04-06T05:43:05;24.20;;;18.08;;
41323;SDS011;27073;51.128;4.220;2023-04-06T05:45:31;24.55;;;19.50;;
41323;SDS011;27073;51.128;4.220;2023-04-06T05:47:58;23.00;;;18.83;;
41323;SDS011;27073;51.128;4.220;2023-04-06T05:50:27;24.75;;;19.05;;
41323;SDS011;27073;51.128;4.220;2023-04-06T05:52:56;22.95;;;18.65;;
41323;SDS011;27073;51.128;4.220;2023-04-06T05:55:26;23.27;;;19.05;;
41323;SDS011;27073;51.128;4.220;2023-04-06T05:58:05;24.77;;;19.30;;
41323;SDS011;27073;51.128;4.220;2023-04-06T06:00:32;23.65;;;19.40;;
41323;SDS011;27073;51.128;4.220;2023-04-06T06:03:04;25.45;;;18.63;;
41323;SDS011;27073;51.128;4.220;2023-04-06T06:05:32;29.27;;;20.17;;
41323;SDS011;27073;51.128;4.220;2023-04-06T06:08:04;27.33;;;20.15;;
41323;SDS011;27073;51.128;4.220;2023-04-06T06:10:30;27.40;;;20.40;;
41323;SDS011;27073;51.128;4.220;2023-04-06T06:12:57;26.75;;;21.98;;
41323;SDS011;27073;51.128;4.220;2023-04-06T06:15:23;25.83;;;19.88;;
41323;SDS011;27073;51.128;4.220;2023-04-06T06:17:49;25.15;;;19.70;;
41323;SDS011;27073;51.128;4.220;2023-04-06T06:20:16;23.13;;;19.23;;
41323;SDS011;27073;51.128;4.220;2023-04-06T06:22:43;25.60;;;20.23;;
41323;SDS011;27073;51.128;4.220;2023-04-06T06:25:13;23.85;;;19.25;;
41323;SDS011;27073;51.128;4.220;2023-04-06T06:27:39;27.33;;;20.67;;
41323;SDS011;27073;51.128;4.220;2023-04-06T06:30:05;24.35;;;19.98;;
41323;SDS011;27073;51.128;4.220;2023-04-06T06:32:32;25.40;;;20.58;;
41323;SDS011;27073;51.128;4.220;2023-04-06T06:34:58;26.30;;;20.25;;
41323;SDS011;27073;51.128;4.220;2023-04-06T06:37:27;31.30;;;22.20;;
41323;SDS011;27073;51.128;4.220;2023-04-06T06:39:52;31.30;;;21.98;;
41323;SDS011;27073;51.128;4.220;2023-04-06T06:42:20;29.38;;;21.88;;
41323;SDS011;27073;51.128;4.220;2023-04-06T06:45:02;24.10;;;20.13;;
41323;SDS011;27073;51.128;4.220;2023-04-06T06:47:28;27.15;;;21.58;;
41323;SDS011;27073;51.128;4.220;2023-04-06T06:49:53;34.17;;;22.85;;
41323;SDS011;27073;51.128;4.220;2023-04-06T06:52:20;29.85;;;22.17;;
41323;SDS011;27073;51.128;4.220;2023-04-06T06:54:46;27.02;;;19.95;;
41323;SDS011;27073;51.128;4.220;2023-04-06T06:57:12;23.67;;;19.00;;
41323;SDS011;27073;51.128;4.220;2023-04-06T06:59:38;30.13;;;19.77;;
41323;SDS011;27073;51.128;4.220;2023-04-06T07:02:04;28.17;;;20.23;;
41323;SDS011;27073;51.128;4.220;2023-04-06T07:04:30;27.92;;;21.33;;
41323;SDS011;27073;51.128;4.220;2023-04-06T07:06:56;27.67;;;20.35;;
41323;SDS011;27073;51.128;4.220;2023-04-06T07:09:22;29.20;;;21.95;;
41323;SDS011;27073;51.128;4.220;2023-04-06T07:11:48;26.73;;;21.15;;
41323;SDS011;27073;51.128;4.220;2023-04-06T07:14:14;25.58;;;19.92;;
41323;SDS011;27073;51.128;4.220;2023-04-06T07:16:41;23.98;;;19.55;;
41323;SDS011;27073;51.128;4.220;2023-04-06T07:19:09;23.65;;;17.90;;
41323;SDS011;27073;51.128;4.220;2023-04-06T07:21:35;22.88;;;18.80;;
41323;SDS011;27073;51.128;4.220;2023-04-06T07:24:01;23.75;;;17.95;;
41323;SDS011;27073;51.128;4.220;2023-04-06T07:26:27;25.48;;;19.52;;
41323;SDS011;27073;51.128;4.220;2023-04-06T07:28:53;25.60;;;18.38;;
41323;SDS011;27073;51.128;4.220;2023-04-06T07:31:21;21.13;;;16.50;;
41323;SDS011;27073;51.128;4.220;2023-04-06T07:33:48;22.92;;;17.45;;
41323;SDS011;27073;51.128;4.220;2023-04-06T07:36:16;22.33;;;16.13;;
41323;SDS011;27073;51.128;4.220;2023-04-06T07:38:43;21.10;;;16.60;;
41323;SDS011;27073;51.128;4.220;2023-04-06T07:41:11;17.05;;;14.63;;
41323;SDS011;27073;51.128;4.220;2023-04-06T07:43:37;19.13;;;15.32;;
41323;SDS011;27073;51.128;4.220;2023-04-06T07:46:03;22.15;;;14.82;;
41323;SDS011;27073;51.128;4.220;2023-04-06T07:48:30;22.15;;;14.43;;
41323;SDS011;27073;51.128;4.220;2023-04-06T07:51:02;20.98;;;14.00;;
41323;SDS011;27073;51.128;4.220;2023-04-06T07:53:35;18.05;;;12.80;;
41323;SDS011;27073;51.128;4.220;2023-04-06T07:56:01;16.63;;;12.90;;
41323;SDS011;27073;51.128;4.220;2023-04-06T07:58:26;18.13;;;13.27;;
41323;SDS011;27073;51.128;4.220;2023-04-06T08:00:52;15.40;;;12.13;;
41323;SDS011;27073;51.128;4.220;2023-04-06T08:03:19;17.75;;;12.90;;
41323;SDS011;27073;51.128;4.220;2023-04-06T08:05:50;19.15;;;12.95;;
41323;SDS011;27073;51.128;4.220;2023-04-06T08:08:17;16.38;;;12.70;;
41323;SDS011;27073;51.128;4.220;2023-04-06T08:10:45;18.60;;;11.82;;
41323;SDS011;27073;51.128;4.220;2023-04-06T08:13:11;14.27;;;11.38;;
41323;SDS011;27073;51.128;4.220;2023-04-06T08:15:36;15.45;;;11.48;;
41323;SDS011;27073;51.128;4.220;2023-04-06T08:18:03;17.25;;;11.77;;
41323;SDS011;27073;51.128;4.220;2023-04-06T08:20:29;12.57;;;10.80;;
41323;SDS011;27073;51.128;4.220;2023-04-06T08:22:55;13.15;;;10.38;;
41323;SDS011;27073;51.128;4.220;2023-04-06T08:25:21;12.63;;;9.63;;
41323;SDS011;27073;51.128;4.220;2023-04-06T08:27:47;12.68;;;9.48;;
41323;SDS011;27073;51.128;4.220;2023-04-06T08:30:13;12.15;;;9.82;;
41323;SDS011;27073;51.128;4.220;2023-04-06T08:32:40;12.00;;;8.27;;
41323;SDS011;27073;51.128;4.220;2023-04-06T08:35:07;14.45;;;9.45;;
41323;SDS011;27073;51.128;4.220;2023-04-06T08:37:33;11.95;;;9.32;;
41323;SDS011;27073;51.128;4.220;2023-04-06T08:39:59;13.10;;;9.70;;
41323;SDS011;27073;51.128;4.220;2023-04-06T08:42:25;12.75;;;9.25;;
41323;SDS011;27073;51.128;4.220;2023-04-06T08:44:53;10.95;;;8.57;;
41323;SDS011;27073;51.128;4.220;2023-04-06T08:47:21;10.82;;;8.88;;
41323;SDS011;27073;51.128;4.220;2023-04-06T08:49:47;11.77;;;8.57;;
41323;SDS011;27073;51.128;4.220;2023-04-06T08:52:13;13.57;;;9.82;;
41323;SDS011;27073;51.128;4.220;2023-04-06T08:54:43;10.45;;;6.78;;
41323;SDS011;27073;51.128;4.220;2023-04-06T08:57:09;11.52;;;8.10;;
41323;SDS011;27073;51.128;4.220;2023-04-06T08:59:36;11.68;;;9.02;;
41323;SDS011;27073;51.128;4.220;2023-04-06T09:02:03;11.95;;;7.75;;
41323;SDS011;27073;51.128;4.220;2023-04-06T09:04:33;12.03;;;8.10;;
41323;SDS011;27073;51.128;4.220;2023-04-06T09:07:00;9.95;;;7.65;;
41323;SDS011;27073;51.128;4.220;2023-04-06T09:09:26;11.68;;;7.97;;
41323;SDS011;27073;51.128;4.220;2023-04-06T09:11:52;10.43;;;7.95;;
41323;SDS011;27073;51.128;4.220;2023-04-06T09:14:36;12.57;;;8.50;;
41323;SDS011;27073;51.128;4.220;2023-04-06T09:17:04;12.50;;;8.00;;
41323;SDS011;27073;51.128;4.220;2023-04-06T09:19:30;11.82;;;7.85;;
41323;SDS011;27073;51.128;4.220;2023-04-06T09:22:02;10.18;;;7.82;;
41323;SDS011;27073;51.128;4.220;2023-04-06T09:24:39;13.13;;;9.10;;
41323;SDS011;27073;51.128;4.220;2023-04-06T09:27:10;8.70;;;6.82;;
41323;SDS011;27073;51.128;4.220;2023-04-06T09:29:36;12.20;;;9.07;;
41323;SDS011;27073;51.128;4.220;2023-04-06T09:32:05;12.40;;;9.13;;
41323;SDS011;27073;51.128;4.220;2023-04-06T09:34:37;11.02;;;8.60;;
41323;SDS011;27073;51.128;4.220;2023-04-06T09:37:14;11.43;;;8.57;;
41323;SDS011;27073;51.128;4.220;2023-04-06T09:39:44;12.90;;;9.07;;
41323;SDS011;27073;51.128;4.220;2023-04-06T09:42:23;12.52;;;9.32;;
41323;SDS011;27073;51.128;4.220;2023-04-06T09:44:50;10.95;;;9.43;;
41323;SDS011;27073;51.128;4.220;2023-04-06T09:47:16;14.93;;;9.25;;
41323;SDS011;27073;51.128;4.220;2023-04-06T09:49:44;11.23;;;8.90;;
41323;SDS011;27073;51.128;4.220;2023-04-06T09:52:11;11.25;;;9.25;;
41323;SDS011;27073;51.128;4.220;2023-04-06T09:54:37;12.68;;;9.02;;
41323;SDS011;27073;51.128;4.220;2023-04-06T10:07:59;12.15;;;9.43;;
41323;SDS011;27073;51.128;4.220;2023-04-06T10:10:30;11.93;;;9.68;;
41323;SDS011;27073;51.128;4.220;2023-04-06T10:12:56;14.13;;;10.00;;
41323;SDS011;27073;51.128;4.220;2023-04-06T10:15:22;12.07;;;9.85;;
41323;SDS011;27073;51.128;4.220;2023-04-06T10:17:49;14.55;;;10.23;;
41323;SDS011;27073;51.128;4.220;2023-04-06T10:23:19;12.90;;;10.30;;
41323;SDS011;27073;51.128;4.220;2023-04-06T10:26:01;13.65;;;9.60;;
41323;SDS011;27073;51.128;4.220;2023-04-06T10:28:31;13.23;;;9.97;;
41323;SDS011;27073;51.128;4.220;2023-04-06T10:31:00;11.55;;;9.95;;
41323;SDS011;27073;51.128;4.220;2023-04-06T10:33:29;12.02;;;9.57;;
41323;SDS011;27073;51.128;4.220;2023-04-06T10:35:55;11.77;;;10.10;;
41323;SDS011;27073;51.128;4.220;2023-04-06T10:38:21;15.07;;;9.98;;
41323;SDS011;27073;51.128;4.220;2023-04-06T10:41:08;13.27;;;11.02;;
41323;SDS011;27073;51.128;4.220;2023-04-06T10:43:41;14.73;;;10.73;;
41323;SDS011;27073;51.128;4.220;2023-04-06T10:46:07;13.70;;;10.50;;
41323;SDS011;27073;51.128;4.220;2023-04-06T10:51:07;14.80;;;10.77;;
41323;SDS011;27073;51.128;4.220;2023-04-06T10:53:34;14.48;;;10.88;;
41323;SDS011;27073;51.128;4.220;2023-04-06T10:56:00;15.63;;;11.60;;
41323;SDS011;27073;51.128;4.220;2023-04-06T10:58:28;16.70;;;12.65;;
41323;SDS011;27073;51.128;4.220;2023-04-06T11:00:57;16.02;;;12.27;;
41323;SDS011;27073;51.128;4.220;2023-04-06T11:03:24;14.63;;;11.95;;
41323;SDS011;27073;51.128;4.220;2023-04-06T11:05:50;15.25;;;11.82;;
41323;SDS011;27073;51.128;4.220;2023-04-06T11:08:30;15.85;;;12.32;;
41323;SDS011;27073;51.128;4.220;2023-04-06T11:11:07;15.48;;;12.48;;
41323;SDS011;27073;51.128;4.220;2023-04-06T11:13:52;15.85;;;12.75;;
41323;SDS011;27073;51.128;4.220;2023-04-06T11:16:23;15.38;;;12.07;;
41323;SDS011;27073;51.128;4.220;2023-04-06T11:18:56;15.50;;;11.75;;
41323;SDS011;27073;51.128;4.220;2023-04-06T11:21:35;14.70;;;12.38;;
41323;SDS011;27073;51.128;4.220;2023-04-06T11:26:31;16.23;;;12.68;;
41323;SDS011;27073;51.128;4.220;2023-04-06T11:29:01;15.77;;;12.65;;
41323;SDS011;27073;51.128;4.220;2023-04-06T11:31:27;15.75;;;13.00;;
41323;SDS011;27073;51.128;4.220;2023-04-06T11:33:56;16.98;;;12.70;;
41323;SDS011;27073;51.128;4.220;2023-04-06T11:36:22;17.63;;;14.05;;
41323;SDS011;27073;51.128;4.220;2023-04-06T11:38:48;16.98;;;13.50;;
41323;SDS011;27073;51.128;4.220;2023-04-06T11:41:15;19.38;;;13.50;;
41323;SDS011;27073;51.128;4.220;2023-04-06T11:43:50;16.40;;;13.57;;
41323;SDS011;27073;51.128;4.220;2023-04-06T11:46:17;15.13;;;13.25;;
41323;SDS011;27073;51.128;4.220;2023-04-06T11:48:46;18.65;;;14.40;;
41323;SDS011;27073;51.128;4.220;2023-04-06T11:51:12;16.67;;;13.75;;
41323;SDS011;27073;51.128;4.220;2023-04-06T11:53:47;17.05;;;13.88;;
41323;SDS011;27073;51.128;4.220;2023-04-06T11:56:23;19.48;;;12.93;;
41323;SDS011;27073;51.128;4.220;2023-04-06T12:01:20;16.45;;;12.25;;
41323;SDS011;27073;51.128;4.220;2023-04-06T12:03:46;17.17;;;13.07;;
41323;SDS011;27073;51.128;4.220;2023-04-06T12:06:13;17.48;;;13.27;;
41323;SDS011;27073;51.128;4.220;2023-04-06T12:08:39;18.58;;;13.98;;
41323;SDS011;27073;51.128;4.220;2023-04-06T12:11:05;16.35;;;12.07;;
41323;SDS011;27073;51.128;4.220;2023-04-06T12:13:30;15.27;;;12.57;;
41323;SDS011;27073;51.128;4.220;2023-04-06T12:15:56;15.38;;;13.32;;
41323;SDS011;27073;51.128;4.220;2023-04-06T12:18:22;16.00;;;12.93;;
41323;SDS011;27073;51.128;4.220;2023-04-06T12:20:48;16.83;;;11.38;;
41323;SDS011;27073;51.128;4.220;2023-04-06T12:23:14;15.32;;;12.48;;
41323;SDS011;27073;51.128;4.220;2023-04-06T12:25:40;11.93;;;10.18;;
41323;SDS011;27073;51.128;4.220;2023-04-06T12:28:06;14.68;;;11.82;;
41323;SDS011;27073;51.128;4.220;2023-04-06T12:30:32;12.45;;;10.18;;
41323;SDS011;27073;51.128;4.220;2023-04-06T12:32:59;12.13;;;10.10;;
41323;SDS011;27073;51.128;4.220;2023-04-06T12:35:25;12.73;;;9.88;;
41323;SDS011;27073;51.128;4.220;2023-04-06T12:37:51;11.05;;;9.25;;
41323;SDS011;27073;51.128;4.220;2023-04-06T12:40:17;11.85;;;9.77;;
41323;SDS011;27073;51.128;4.220;2023-04-06T12:42:42;11.32;;;9.85;;
41323;SDS011;27073;51.128;4.220;2023-04-06T12:45:09;13.27;;;9.20;;
41323;SDS011;27073;51.128;4.220;2023-04-06T12:47:35;12.15;;;9.00;;
41323;SDS011;27073;51.128;4.220;2023-04-06T12:50:01;11.75;;;9.32;;
41323;SDS011;27073;51.128;4.220;2023-04-06T12:52:28;11.95;;;9.70;;
41323;SDS011;27073;51.128;4.220;2023-04-06T12:54:56;8.73;;;7.65;;
41323;SDS011;27073;51.128;4.220;2023-04-06T12:57:22;10.50;;;8.40;;
41323;SDS011;27073;51.128;4.220;2023-04-06T12:59:48;9.85;;;8.80;;
41323;SDS011;27073;51.128;4.220;2023-04-06T13:02:14;14.48;;;9.45;;
41323;SDS011;27073;51.128;4.220;2023-04-06T13:04:40;11.13;;;9.73;;
41323;SDS011;27073;51.128;4.220;2023-04-06T13:07:06;12.60;;;10.07;;
41323;SDS011;27073;51.128;4.220;2023-04-06T13:09:32;10.38;;;8.95;;
41323;SDS011;27073;51.128;4.220;2023-04-06T13:11:58;11.65;;;9.88;;
41323;SDS011;27073;51.128;4.220;2023-04-06T13:14:24;12.18;;;9.98;;
41323;SDS011;27073;51.128;4.220;2023-04-06T13:16:50;12.35;;;9.80;;
41323;SDS011;27073;51.128;4.220;2023-04-06T13:19:16;10.65;;;9.07;;
41323;SDS011;27073;51.128;4.220;2023-04-06T13:21:43;15.50;;;11.88;;
41323;SDS011;27073;51.128;4.220;2023-04-06T13:24:09;12.57;;;10.30;;
41323;SDS011;27073;51.128;4.220;2023-04-06T13:26:35;11.15;;;9.98;;
41323;SDS011;27073;51.128;4.220;2023-04-06T13:29:01;12.13;;;10.65;;
41323;SDS011;27073;51.128;4.220;2023-04-06T13:31:28;12.55;;;10.23;;
41323;SDS011;27073;51.128;4.220;2023-04-06T13:33:54;12.80;;;10.55;;
41323;SDS011;27073;51.128;4.220;2023-04-06T13:36:20;13.15;;;11.05;;
41323;SDS011;27073;51.128;4.220;2023-04-06T13:38:47;11.32;;;10.10;;
41323;SDS011;27073;51.128;4.220;2023-04-06T13:41:23;14.25;;;11.32;;
41323;SDS011;27073;51.128;4.220;2023-04-06T13:43:50;14.25;;;11.40;;
41323;SDS011;27073;51.128;4.220;2023-04-06T13:46:16;16.63;;;12.40;;
41323;SDS011;27073;51.128;4.220;2023-04-06T13:48:43;14.25;;;12.00;;
41323;SDS011;27073;51.128;4.220;2023-04-06T13:51:12;13.57;;;12.18;;
41323;SDS011;27073;51.128;4.220;2023-04-06T13:53:39;14.13;;;12.45;;
41323;SDS011;27073;51.128;4.220;2023-04-06T13:56:05;14.20;;;12.35;;
41323;SDS011;27073;51.128;4.220;2023-04-06T13:58:32;14.02;;;12.65;;
41323;SDS011;27073;51.128;4.220;2023-04-06T14:01:05;14.43;;;12.93;;
41323;SDS011;27073;51.128;4.220;2023-04-06T14:03:32;14.20;;;12.70;;
41323;SDS011;27073;51.128;4.220;2023-04-06T14:05:58;14.57;;;12.45;;
41323;SDS011;27073;51.128;4.220;2023-04-06T14:08:24;14.07;;;12.10;;
41323;SDS011;27073;51.128;4.220;2023-04-06T14:10:50;15.55;;;13.88;;
41323;SDS011;27073;51.128;4.220;2023-04-06T14:13:16;14.27;;;11.88;;
41323;SDS011;27073;51.128;4.220;2023-04-06T14:15:42;16.38;;;12.52;;
41323;SDS011;27073;51.128;4.220;2023-04-06T14:18:08;15.60;;;13.93;;
41323;SDS011;27073;51.128;4.220;2023-04-06T14:20:34;14.13;;;12.75;;
41323;SDS011;27073;51.128;4.220;2023-04-06T14:23:00;13.60;;;12.20;;
41323;SDS011;27073;51.128;4.220;2023-04-06T14:25:27;14.73;;;13.07;;
41323;SDS011;27073;51.128;4.220;2023-04-06T14:27:52;15.15;;;12.65;;
41323;SDS011;27073;51.128;4.220;2023-04-06T14:30:18;14.88;;;13.27;;
41323;SDS011;27073;51.128;4.220;2023-04-06T14:32:44;19.55;;;14.30;;
41323;SDS011;27073;51.128;4.220;2023-04-06T14:35:10;15.68;;;13.23;;
41323;SDS011;27073;51.128;4.220;2023-04-06T14:37:36;14.27;;;12.77;;
41323;SDS011;27073;51.128;4.220;2023-04-06T14:40:05;14.52;;;12.82;;
41323;SDS011;27073;51.128;4.220;2023-04-06T14:42:31;13.73;;;12.35;;
41323;SDS011;27073;51.128;4.220;2023-04-06T14:44:57;15.85;;;12.43;;
41323;SDS011;27073;51.128;4.220;2023-04-06T14:47:23;13.35;;;11.95;;
41323;SDS011;27073;51.128;4.220;2023-04-06T14:49:49;14.60;;;12.85;;
41323;SDS011;27073;51.128;4.220;2023-04-06T14:52:16;15.50;;;13.20;;
41323;SDS011;27073;51.128;4.220;2023-04-06T14:54:42;16.77;;;14.95;;